createdAt,value
2016-05-27T00:00:19.825Z,17.59
2016-05-27T00:01:19.905Z,17.67
2016-05-27T00:02:19.830Z,17.6
2016-05-27T00:03:19.848Z,17.59
2016-05-27T00:04:20.086Z,17.63
2016-05-27T00:05:19.681Z,17.64
2016-05-27T00:06:19.887Z,17.6
2016-05-27T00:07:19.703Z,17.63
2016-05-27T00:08:19.861Z,17.48
2016-05-27T00:09:19.864Z,17.45
2016-05-27T00:10:19.867Z,17.48
2016-05-27T00:11:19.854Z,17.36
2016-05-27T00:12:19.857Z,17.46
2016-05-27T00:13:19.874Z,17.38
2016-05-27T00:14:20.003Z,17.36
2016-05-27T00:15:19.990Z,17.36
2016-05-27T00:16:20.054Z,17.42
2016-05-27T00:17:22.963Z,17.39
2016-05-27T00:18:19.966Z,17.38
2016-05-27T00:19:19.969Z,17.34
2016-05-27T00:20:19.988Z,17.39
2016-05-27T00:21:20.099Z,17.46
2016-05-27T00:22:20.023Z,17.46
2016-05-27T00:23:19.667Z,17.36
2016-05-27T00:24:20.030Z,17.46
2016-05-27T00:25:20.001Z,17.52
2016-05-27T00:26:20.004Z,17.49
2016-05-27T00:27:20.006Z,17.51
2016-05-27T00:28:19.931Z,17.45
2016-05-27T00:29:20.011Z,17.52
2016-05-27T00:30:20.014Z,17.46
2016-05-27T00:31:20.126Z,17.54
2016-05-27T00:32:19.895Z,17.51
2016-05-27T00:33:20.600Z,17.46
2016-05-27T00:34:20.009Z,17.46
2016-05-27T00:35:19.996Z,17.48
2016-05-27T00:36:20.014Z,17.48
2016-05-27T00:37:19.939Z,17.46
2016-05-27T00:38:19.958Z,17.48
2016-05-27T00:39:20.007Z,17.52
2016-05-27T00:40:20.010Z,17.51
2016-05-27T00:41:19.966Z,17.54
2016-05-27T00:42:19.952Z,17.59
2016-05-27T00:43:20.018Z,17.59
2016-05-27T00:44:19.646Z,17.64
2016-05-27T00:45:19.977Z,17.6
2016-05-27T00:46:20.026Z,17.54
2016-05-27T00:47:19.997Z,17.57
2016-05-27T00:48:20.578Z,17.68
2016-05-27T00:49:19.988Z,17.6
2016-05-27T00:50:20.005Z,17.54
2016-05-27T00:51:20.071Z,17.54
2016-05-27T00:52:19.839Z,17.57
2016-05-27T00:53:19.998Z,17.54
2016-05-27T00:54:20.016Z,17.64
2016-05-27T00:55:20.018Z,17.54
2016-05-27T00:56:20.100Z,17.57
2016-05-27T00:57:20.009Z,17.56
2016-05-27T00:58:19.855Z,17.59
2016-05-27T00:59:19.859Z,17.54
2016-05-27T01:00:19.861Z,17.67
2016-05-27T01:01:20.034Z,17.57
2016-05-27T01:02:20.023Z,17.54
2016-05-27T01:03:19.915Z,17.54
2016-05-27T01:04:20.497Z,17.57
2016-05-27T01:05:20.030Z,17.63
2016-05-27T01:06:20.048Z,17.57
2016-05-27T01:07:19.895Z,17.48
2016-05-27T01:08:20.022Z,17.59
2016-05-27T01:09:19.885Z,17.63
2016-05-27T01:10:20.058Z,17.6
2016-05-27T01:11:20.046Z,17.7
2016-05-27T01:12:20.080Z,17.59
2016-05-27T01:13:19.896Z,17.67
2016-05-27T01:14:20.055Z,17.67
2016-05-27T01:15:20.072Z,17.79
2016-05-27T01:16:20.154Z,17.7
2016-05-27T01:17:20.094Z,17.74
2016-05-27T01:18:19.941Z,17.72
2016-05-27T01:19:20.490Z,17.72
2016-05-27T01:20:19.930Z,17.72
2016-05-27T01:21:20.120Z,17.78
2016-05-27T01:22:20.108Z,17.82
2016-05-27T01:23:19.968Z,17.8
2016-05-27T01:24:20.128Z,17.82
2016-05-27T01:25:23.162Z,17.82
2016-05-27T01:26:20.227Z,17.78
2016-05-27T01:27:20.230Z,17.76
2016-05-27T01:28:20.140Z,17.79
2016-05-27T01:29:20.126Z,17.79
2016-05-27T01:30:20.129Z,17.79
2016-05-27T01:31:20.147Z,17.8
2016-05-27T01:32:20.103Z,17.78
2016-05-27T01:33:20.106Z,17.8
2016-05-27T01:34:20.437Z,17.8
2016-05-27T01:35:20.126Z,17.9
2016-05-27T01:36:20.285Z,17.97
2016-05-27T01:37:20.289Z,17.92
2016-05-27T01:38:20.181Z,17.97
2016-05-27T01:39:20.169Z,17.92
2016-05-27T01:40:20.124Z,17.9
2016-05-27T01:41:20.033Z,17.94
2016-05-27T01:42:20.145Z,17.97
2016-05-27T01:43:20.133Z,18.01
2016-05-27T01:44:20.166Z,18.01
2016-05-27T01:45:20.153Z,18.08
2016-05-27T01:46:20.235Z,17.95
2016-05-27T01:47:20.158Z,18
2016-05-27T01:48:20.427Z,18.03
2016-05-27T01:49:20.166Z,18
2016-05-27T01:50:20.188Z,18.01
2016-05-27T01:51:20.257Z,18.01
2016-05-27T01:52:20.232Z,18.03
2016-05-27T01:53:20.254Z,18
2016-05-27T01:54:20.259Z,17.94
2016-05-27T01:55:20.300Z,17.95
2016-05-27T01:56:20.231Z,17.85
2016-05-27T01:57:20.303Z,17.86
2016-05-27T01:58:20.313Z,17.74
2016-05-27T01:59:20.337Z,17.79
2016-05-27T02:00:20.171Z,17.86
2016-05-27T02:01:20.443Z,17.74
2016-05-27T02:02:20.197Z,17.79
2016-05-27T02:03:20.343Z,17.78
2016-05-27T02:04:20.208Z,17.78
2016-05-27T02:05:20.367Z,17.79
2016-05-27T02:06:20.355Z,17.76
2016-05-27T02:07:20.063Z,17.8
2016-05-27T02:08:20.363Z,17.94
2016-05-27T02:09:20.225Z,17.95
2016-05-27T02:10:20.369Z,17.87
2016-05-27T02:11:20.371Z,17.9
2016-05-27T02:12:20.375Z,17.9
2016-05-27T02:13:20.378Z,18.05
2016-05-27T02:14:20.380Z,18.08
2016-05-27T02:15:20.383Z,18.03
2016-05-27T02:16:20.386Z,18.07
2016-05-27T02:17:20.389Z,18.11
2016-05-27T02:18:20.408Z,18.19
2016-05-27T02:19:20.411Z,18.13
2016-05-27T02:20:20.257Z,18.05
2016-05-27T02:21:20.478Z,18.15
2016-05-27T02:22:20.418Z,18.05
2016-05-27T02:23:20.421Z,18.15
2016-05-27T02:24:20.408Z,18.11
2016-05-27T02:25:20.426Z,18.13
2016-05-27T02:26:20.476Z,18.1
2016-05-27T02:27:20.431Z,18.04
2016-05-27T02:28:20.434Z,18.1
2016-05-27T02:29:20.453Z,18.08
2016-05-27T02:30:20.440Z,18.07
2016-05-27T02:31:20.442Z,18.03
2016-05-27T02:32:20.461Z,18.08
2016-05-27T02:33:20.447Z,18.08
2016-05-27T02:34:20.295Z,18.05
2016-05-27T02:35:20.469Z,18.1
2016-05-27T02:36:20.456Z,18.05
2016-05-27T02:37:20.474Z,17.92
2016-05-27T02:38:20.462Z,17.89
2016-05-27T02:39:20.464Z,17.92
2016-05-27T02:40:20.497Z,17.9
2016-05-27T02:41:20.313Z,17.97
2016-05-27T02:42:20.488Z,17.97
2016-05-27T02:43:20.491Z,17.94
2016-05-27T02:44:20.494Z,18.01
2016-05-27T02:45:20.480Z,17.9
2016-05-27T02:46:20.482Z,17.82
2016-05-27T02:47:20.485Z,17.82
2016-05-27T02:48:20.347Z,17.8
2016-05-27T02:49:20.835Z,17.79
2016-05-27T02:50:20.525Z,17.78
2016-05-27T02:51:20.512Z,17.71
2016-05-27T02:52:20.358Z,17.78
2016-05-27T02:53:20.518Z,17.71
2016-05-27T02:54:20.520Z,17.7
2016-05-27T02:55:20.366Z,17.71
2016-05-27T02:56:20.526Z,17.67
2016-05-27T02:57:20.512Z,17.72
2016-05-27T02:58:20.515Z,17.68
2016-05-27T02:59:20.518Z,17.68
2016-05-27T03:00:20.537Z,17.64
2016-05-27T03:01:20.587Z,17.64
2016-05-27T03:02:20.385Z,17.65
2016-05-27T03:03:20.545Z,17.65
2016-05-27T03:04:20.390Z,17.7
2016-05-27T03:05:20.550Z,17.68
2016-05-27T03:06:20.600Z,17.76
2016-05-27T03:07:20.556Z,17.72
2016-05-27T03:08:20.558Z,17.74
2016-05-27T03:09:20.561Z,17.74
2016-05-27T03:10:20.579Z,17.72
2016-05-27T03:11:20.566Z,17.71
2016-05-27T03:12:20.569Z,17.7
2016-05-27T03:13:20.586Z,17.74
2016-05-27T03:14:20.590Z,17.71
2016-05-27T03:15:20.592Z,17.76
2016-05-27T03:16:20.595Z,17.78
2016-05-27T03:17:20.582Z,17.74
2016-05-27T03:18:20.600Z,17.78
2016-05-27T03:19:21.150Z,17.76
2016-05-27T03:20:20.591Z,17.85
2016-05-27T03:21:20.686Z,17.78
2016-05-27T03:22:20.439Z,17.87
2016-05-27T03:23:20.614Z,17.8
2016-05-27T03:24:20.601Z,17.82
2016-05-27T03:25:20.635Z,17.76
2016-05-27T03:26:20.621Z,17.76
2016-05-27T03:27:20.452Z,17.85
2016-05-27T03:28:20.612Z,17.85
2016-05-27T03:29:20.318Z,17.82
2016-05-27T03:30:20.617Z,17.79
2016-05-27T03:31:20.698Z,17.71
2016-05-27T03:32:20.638Z,17.86
2016-05-27T03:33:20.640Z,17.85
2016-05-27T03:34:20.659Z,17.83
2016-05-27T03:35:20.646Z,17.79
2016-05-27T03:36:20.680Z,17.78
2016-05-27T03:37:20.651Z,17.82
2016-05-27T03:38:20.654Z,17.82
2016-05-27T03:39:20.656Z,17.76
2016-05-27T03:40:20.659Z,17.76
2016-05-27T03:41:20.709Z,17.79
2016-05-27T03:42:20.665Z,17.79
2016-05-27T03:43:20.667Z,17.72
2016-05-27T03:44:20.686Z,17.7
2016-05-27T03:45:20.673Z,17.74
2016-05-27T03:46:20.675Z,17.72
2016-05-27T03:47:20.678Z,17.72
2016-05-27T03:48:20.775Z,17.7
2016-05-27T03:49:20.965Z,17.71
2016-05-27T03:50:20.686Z,17.64
2016-05-27T03:51:20.736Z,17.65
2016-05-27T03:52:20.691Z,17.68
2016-05-27T03:53:20.694Z,17.57
2016-05-27T03:54:20.697Z,17.6
2016-05-27T03:55:20.699Z,17.64
2016-05-27T03:56:20.749Z,17.54
2016-05-27T03:57:20.721Z,17.57
2016-05-27T03:58:20.723Z,17.64
2016-05-27T03:59:20.710Z,17.59
2016-05-27T04:00:20.713Z,17.64
2016-05-27T04:01:20.778Z,17.64
2016-05-27T04:02:20.718Z,17.64
2016-05-27T04:03:20.721Z,17.64
2016-05-27T04:04:20.427Z,17.67
2016-05-27T04:05:20.726Z,17.63
2016-05-27T04:06:20.589Z,17.65
2016-05-27T04:07:20.732Z,17.67
2016-05-27T04:08:20.734Z,17.59
2016-05-27T04:09:20.737Z,17.67
2016-05-27T04:10:20.740Z,17.68
2016-05-27T04:11:20.759Z,17.71
2016-05-27T04:12:20.745Z,17.74
2016-05-27T04:13:20.764Z,17.74
2016-05-27T04:14:20.594Z,17.68
2016-05-27T04:15:20.753Z,17.68
2016-05-27T04:16:20.772Z,17.64
2016-05-27T04:17:20.775Z,17.68
2016-05-27T04:18:20.933Z,17.74
2016-05-27T04:19:21.030Z,17.68
2016-05-27T04:20:20.767Z,17.7
2016-05-27T04:21:20.832Z,17.67
2016-05-27T04:22:20.788Z,17.63
2016-05-27T04:23:20.822Z,17.65
2016-05-27T04:24:20.809Z,17.6
2016-05-27T04:25:20.797Z,17.63
2016-05-27T04:26:20.815Z,17.64
2016-05-27T04:27:20.785Z,17.64
2016-05-27T04:28:20.820Z,17.59
2016-05-27T04:29:20.807Z,17.65
2016-05-27T04:30:20.809Z,17.57
2016-05-27T04:31:20.890Z,17.54
2016-05-27T04:32:20.831Z,17.59
2016-05-27T04:33:20.801Z,17.59
2016-05-27T04:34:21.039Z,17.57
2016-05-27T04:35:20.651Z,17.64
2016-05-27T04:36:20.762Z,17.56
2016-05-27T04:37:20.828Z,17.49
2016-05-27T04:38:20.831Z,17.56
2016-05-27T04:39:20.678Z,17.45
2016-05-27T04:40:20.836Z,17.42
2016-05-27T04:41:20.886Z,17.41
2016-05-27T04:42:20.842Z,17.33
2016-05-27T04:43:20.861Z,17.3
2016-05-27T04:44:20.847Z,17.38
2016-05-27T04:45:20.834Z,17.39
2016-05-27T04:46:20.884Z,17.33
2016-05-27T04:47:20.839Z,17.31
2016-05-27T04:48:20.858Z,17.3
2016-05-27T04:49:21.969Z,17.31
2016-05-27T04:50:20.722Z,17.29
2016-05-27T04:51:20.882Z,17.23
2016-05-27T04:52:20.885Z,17.22
2016-05-27T04:53:20.887Z,17.24
2016-05-27T04:54:20.718Z,17.31
2016-05-27T04:55:20.736Z,17.33
2016-05-27T04:56:20.926Z,17.39
2016-05-27T04:57:20.882Z,17.33
2016-05-27T04:58:20.885Z,17.39
2016-05-27T04:59:20.904Z,17.38
2016-05-27T05:00:20.734Z,17.38
2016-05-27T05:01:20.909Z,17.39
2016-05-27T05:02:20.911Z,17.42
2016-05-27T05:03:20.757Z,17.51
2016-05-27T05:04:20.745Z,17.52
2016-05-27T05:05:20.903Z,17.57
2016-05-27T05:06:20.953Z,17.59
2016-05-27T05:07:20.909Z,17.63
2016-05-27T05:08:20.912Z,17.56
2016-05-27T05:09:20.945Z,17.65
2016-05-27T05:10:20.917Z,17.63
2016-05-27T05:11:20.795Z,17.64
2016-05-27T05:12:20.923Z,17.74
2016-05-27T05:13:20.926Z,17.83
2016-05-27T05:14:20.928Z,17.9
2016-05-27T05:15:20.947Z,17.97
2016-05-27T05:16:20.777Z,17.92
2016-05-27T05:17:20.952Z,17.9
2016-05-27T05:18:20.955Z,17.9
2016-05-27T05:19:21.160Z,17.89
2016-05-27T05:20:20.960Z,18.01
2016-05-27T05:21:20.977Z,18.08
2016-05-27T05:22:20.980Z,18.05
2016-05-27T05:23:20.811Z,18.05
2016-05-27T05:24:21.017Z,18.01
2016-05-27T05:25:20.973Z,18.11
2016-05-27T05:26:21.022Z,18.15
2016-05-27T05:27:20.822Z,18.13
2016-05-27T05:28:20.982Z,18.11
2016-05-27T05:29:20.828Z,18.18
2016-05-27T05:30:21.001Z,18.23
2016-05-27T05:31:21.021Z,18.33
2016-05-27T05:32:20.993Z,18.28
2016-05-27T05:33:21.495Z,18.28
2016-05-27T05:34:21.013Z,18.47
2016-05-27T05:35:21.016Z,18.43
2016-05-27T05:36:21.034Z,18.49
2016-05-27T05:37:20.865Z,18.53
2016-05-27T05:38:21.024Z,18.52
2016-05-27T05:39:20.870Z,18.58
2016-05-27T05:40:21.029Z,18.52
2016-05-27T05:41:21.125Z,18.62
2016-05-27T05:42:21.020Z,18.6
2016-05-27T05:43:20.865Z,18.58
2016-05-27T05:44:21.039Z,18.71
2016-05-27T05:45:21.058Z,18.62
2016-05-27T05:46:21.061Z,18.63
2016-05-27T05:47:20.875Z,18.63
2016-05-27T05:48:20.878Z,18.65
2016-05-27T05:49:21.116Z,18.7
2016-05-27T05:50:21.056Z,18.68
2016-05-27T05:51:21.058Z,18.71
2016-05-27T05:52:20.905Z,18.68
2016-05-27T05:53:20.907Z,18.75
2016-05-27T05:54:21.067Z,18.7
2016-05-27T05:55:21.085Z,18.75
2016-05-27T05:56:21.119Z,18.75
2016-05-27T05:57:21.074Z,18.83
2016-05-27T05:58:21.077Z,18.84
2016-05-27T05:59:21.096Z,18.86
2016-05-27T06:00:21.099Z,18.98
2016-05-27T06:01:21.133Z,19.04
2016-05-27T06:02:21.104Z,18.93
2016-05-27T06:03:21.107Z,19.07
2016-05-27T06:04:21.109Z,19.15
2016-05-27T06:05:21.299Z,19.27
2016-05-27T06:06:21.193Z,19.44
2016-05-27T06:07:21.149Z,19.66
2016-05-27T06:08:21.135Z,19.76
2016-05-27T06:09:20.982Z,19.92
2016-05-27T06:10:21.126Z,20.21
2016-05-27T06:11:21.081Z,20.34
2016-05-27T06:12:21.161Z,20.7
2016-05-27T06:13:20.993Z,21.02
2016-05-27T06:14:21.151Z,21.24
2016-05-27T06:15:21.154Z,21.43
2016-05-27T06:16:21.266Z,21.46
2016-05-27T06:17:21.160Z,21.6
2016-05-27T06:18:21.100Z,21.67
2016-05-27T06:19:21.696Z,21.51
2016-05-27T06:20:21.200Z,21.33
2016-05-27T06:21:21.233Z,21.07
2016-05-27T06:22:21.189Z,20.88
2016-05-27T06:23:21.191Z,20.7
2016-05-27T06:24:21.194Z,20.65
2016-05-27T06:25:21.197Z,20.55
2016-05-27T06:26:21.215Z,20.39
2016-05-27T06:27:21.233Z,20.41
2016-05-27T06:28:21.221Z,20.4
2016-05-27T06:29:21.224Z,20.47
2016-05-27T06:30:21.241Z,20.58
2016-05-27T06:31:21.104Z,20.41
2016-05-27T06:32:21.263Z,20.4
2016-05-27T06:33:21.140Z,20.4
2016-05-27T06:34:21.580Z,20.37
2016-05-27T06:35:21.271Z,20.25
2016-05-27T06:36:21.273Z,20.22
2016-05-27T06:37:21.120Z,20.19
2016-05-27T06:38:21.279Z,20.24
2016-05-27T06:39:21.312Z,20.29
2016-05-27T06:40:21.301Z,20.31
2016-05-27T06:41:21.365Z,20.4
2016-05-27T06:42:21.320Z,20.37
2016-05-27T06:43:21.168Z,20.32
2016-05-27T06:44:21.311Z,20.28
2016-05-27T06:45:21.328Z,20.24
2016-05-27T06:46:21.394Z,20.41
2016-05-27T06:47:21.334Z,20.31
2016-05-27T06:48:21.337Z,20.47
2016-05-27T06:49:21.433Z,20.6
2016-05-27T06:50:21.342Z,20.62
2016-05-27T06:51:21.376Z,20.67
2016-05-27T06:52:21.363Z,20.77
2016-05-27T06:53:21.210Z,20.77
2016-05-27T06:54:21.416Z,20.95
2016-05-27T06:55:21.371Z,20.9
2016-05-27T06:56:21.390Z,20.88
2016-05-27T06:57:21.392Z,20.88
2016-05-27T06:58:21.395Z,20.87
2016-05-27T06:59:21.382Z,20.81
2016-05-27T07:00:21.399Z,20.88
2016-05-27T07:01:21.482Z,20.97
2016-05-27T07:02:21.438Z,20.93
2016-05-27T07:03:21.268Z,21.03
2016-05-27T07:04:21.692Z,21.06
2016-05-27T07:05:21.430Z,21.25
2016-05-27T07:06:21.432Z,21.33
2016-05-27T07:07:21.434Z,21.46
2016-05-27T07:08:21.438Z,21.51
2016-05-27T07:09:22.471Z,21.57
2016-05-27T07:10:21.474Z,21.58
2016-05-27T07:11:21.351Z,21.55
2016-05-27T07:12:21.479Z,21.36
2016-05-27T07:13:21.482Z,21.37
2016-05-27T07:14:21.328Z,21.33
2016-05-27T07:15:21.487Z,21.4
2016-05-27T07:16:21.381Z,21.5
2016-05-27T07:17:21.508Z,21.52
2016-05-27T07:18:21.371Z,21.67
2016-05-27T07:19:21.592Z,21.83
2016-05-27T07:20:21.533Z,21.91
2016-05-27T07:21:21.581Z,22.02
2016-05-27T07:22:21.554Z,22.06
2016-05-27T07:23:21.541Z,22.11
2016-05-27T07:24:21.543Z,22.18
2016-05-27T07:25:21.546Z,22.26
2016-05-27T07:26:21.564Z,22.51
2016-05-27T07:27:21.583Z,22.68
2016-05-27T07:28:21.569Z,23.09
2016-05-27T07:29:21.572Z,23.61
2016-05-27T07:30:21.419Z,24.03
2016-05-27T07:31:21.594Z,24.33
2016-05-27T07:32:21.596Z,24.68
2016-05-27T07:33:21.598Z,25.04
2016-05-27T07:34:24.586Z,25.21
2016-05-27T07:35:21.635Z,25.31
2016-05-27T07:36:21.622Z,25.51
2016-05-27T07:37:21.641Z,25.85
2016-05-27T07:38:21.643Z,26.28
2016-05-27T07:39:21.504Z,26.47
2016-05-27T07:40:21.727Z,26.71
2016-05-27T07:41:21.698Z,26.84
2016-05-27T07:42:21.513Z,27.05
2016-05-27T07:43:21.719Z,27.02
2016-05-27T07:44:21.707Z,27.15
2016-05-27T07:45:21.708Z,27.17
2016-05-27T07:46:21.774Z,27.22
2016-05-27T07:47:21.746Z,27.33
2016-05-27T07:48:21.576Z,27.17
2016-05-27T07:49:23.344Z,27.3
2016-05-27T07:50:21.754Z,27.2
2016-05-27T07:51:21.787Z,26.71
2016-05-27T07:52:21.789Z,26.18
2016-05-27T07:53:21.792Z,25.43
2016-05-27T07:54:21.639Z,24.99
2016-05-27T07:55:21.829Z,24.8
2016-05-27T07:56:21.816Z,24.77
2016-05-27T07:57:21.819Z,24.5
2016-05-27T07:58:21.681Z,24.28
2016-05-27T07:59:21.855Z,24.11
2016-05-27T08:00:21.859Z,24.01
2016-05-27T08:01:21.908Z,23.93
2016-05-27T08:02:21.723Z,23.77
2016-05-27T08:03:21.898Z,23.62
2016-05-27T08:04:25.666Z,23.62
2016-05-27T08:05:21.904Z,23.73
2016-05-27T08:06:21.937Z,23.77
2016-05-27T08:07:21.909Z,24.02
2016-05-27T08:08:21.942Z,24.17
2016-05-27T08:09:23.383Z,24.29
2016-05-27T08:10:21.917Z,24.54
2016-05-27T08:11:21.841Z,25.01
2016-05-27T08:12:21.968Z,25.59
2016-05-27T08:13:21.988Z,26.05
2016-05-27T08:14:21.974Z,26.71
2016-05-27T08:15:21.993Z,26.99
2016-05-27T08:16:21.901Z,27.29
2016-05-27T08:17:21.998Z,27.48
2016-05-27T08:18:21.860Z,27.86
2016-05-27T08:19:22.409Z,28.22
2016-05-27T08:20:22.303Z,28.49
2016-05-27T08:21:22.103Z,28.45
2016-05-27T08:22:22.042Z,28.56
2016-05-27T08:23:22.062Z,28.39
2016-05-27T08:24:22.783Z,28.07
2016-05-27T08:25:21.925Z,27.93
2016-05-27T08:26:22.100Z,27.86
2016-05-27T08:27:22.088Z,27.63
2016-05-27T08:28:22.091Z,27.18
2016-05-27T08:29:22.108Z,27.17
2016-05-27T08:30:22.127Z,27.3
2016-05-27T08:31:22.130Z,27.35
2016-05-27T08:32:22.132Z,27.63
2016-05-27T08:33:22.135Z,27.93
2016-05-27T08:34:22.169Z,28.19
2016-05-27T08:35:22.188Z,28.62
2016-05-27T08:36:22.174Z,28.88
2016-05-27T08:37:22.193Z,28.86
2016-05-27T08:38:22.195Z,28.81
2016-05-27T08:39:25.666Z,28.79
2016-05-27T08:40:22.216Z,28.81
2016-05-27T08:41:22.282Z,29.02
2016-05-27T08:42:22.237Z,29.04
2016-05-27T08:43:22.099Z,28.98
2016-05-27T08:44:22.259Z,28.97
2016-05-27T08:45:22.276Z,28.78
2016-05-27T08:46:22.279Z,28.56
2016-05-27T08:47:22.313Z,28.41
2016-05-27T08:48:22.300Z,28.56
2016-05-27T08:49:23.693Z,28.45
2016-05-27T08:50:22.353Z,28.32
2016-05-27T08:51:22.403Z,28.07
2016-05-27T08:52:22.187Z,27.93
2016-05-27T08:53:22.361Z,27.48
2016-05-27T08:54:24.411Z,26.96
2016-05-27T08:55:22.397Z,26.52
2016-05-27T08:56:22.384Z,26.19
2016-05-27T08:57:22.403Z,25.85
2016-05-27T08:58:22.421Z,25.38
2016-05-27T08:59:22.439Z,24.95
2016-05-27T09:00:22.285Z,24.74
2016-05-27T09:01:22.461Z,24.48
2016-05-27T09:02:22.463Z,24.43
2016-05-27T09:03:22.466Z,24.32
2016-05-27T09:04:29.672Z,24.14
2016-05-27T09:05:23.361Z,24.08
2016-05-27T09:06:22.349Z,23.96
2016-05-27T09:07:22.508Z,23.8
2016-05-27T09:08:22.510Z,23.71
2016-05-27T09:09:23.888Z,23.68
2016-05-27T09:10:22.391Z,23.76
2016-05-27T09:11:22.549Z,23.81
2016-05-27T09:12:22.552Z,23.87
2016-05-27T09:13:22.554Z,23.96
2016-05-27T09:14:22.949Z,24.01
2016-05-27T09:15:22.560Z,24.08
2016-05-27T09:16:22.656Z,24.14
2016-05-27T09:17:22.597Z,24.33
2016-05-27T09:18:22.601Z,24.32
2016-05-27T09:19:22.899Z,24.39
2016-05-27T09:20:22.620Z,24.47
2016-05-27T09:21:22.483Z,24.63
2016-05-27T09:22:22.625Z,24.65
2016-05-27T09:23:22.645Z,24.84
2016-05-27T09:24:23.460Z,24.7
2016-05-27T09:25:22.665Z,24.66
2016-05-27T09:26:22.684Z,24.66
2016-05-27T09:27:22.670Z,24.8
2016-05-27T09:28:22.533Z,24.68
2016-05-27T09:29:23.755Z,24.84
2016-05-27T09:30:22.710Z,24.84
2016-05-27T09:31:22.838Z,24.92
2016-05-27T09:32:22.731Z,25.04
2016-05-27T09:33:22.718Z,25.04
2016-05-27T09:34:22.768Z,25.31
2016-05-27T09:35:22.755Z,25.43
2016-05-27T09:36:23.367Z,25.58
2016-05-27T09:37:22.776Z,25.72
2016-05-27T09:38:22.779Z,25.87
2016-05-27T09:39:24.328Z,25.99
2016-05-27T09:40:22.784Z,26.1
2016-05-27T09:41:22.818Z,26.06
2016-05-27T09:42:22.790Z,26.07
2016-05-27T09:43:22.807Z,26.06
2016-05-27T09:44:22.810Z,25.91
2016-05-27T09:45:22.829Z,25.87
2016-05-27T09:46:22.846Z,25.7
2016-05-27T09:47:22.849Z,25.63
2016-05-27T09:48:22.837Z,25.62
2016-05-27T09:49:26.229Z,25.46
2016-05-27T09:50:22.576Z,25.44
2016-05-27T09:51:22.798Z,25.46
2016-05-27T09:52:22.878Z,25.47
2016-05-27T09:53:22.881Z,25.62
2016-05-27T09:54:22.884Z,25.77
2016-05-27T09:55:22.903Z,25.88
2016-05-27T09:56:22.952Z,26.03
2016-05-27T09:57:22.908Z,26.19
2016-05-27T09:58:22.941Z,26.33
2016-05-27T09:59:22.789Z,26.38
2016-05-27T10:00:22.791Z,26.37
2016-05-27T10:01:23.012Z,26.33
2016-05-27T10:02:22.968Z,26.28
2016-05-27T10:03:22.986Z,26.25
2016-05-27T10:04:23.019Z,26.31
2016-05-27T10:05:22.977Z,26.4
2016-05-27T10:06:22.839Z,26.43
2016-05-27T10:07:22.997Z,26.48
2016-05-27T10:08:22.999Z,26.52
2016-05-27T10:09:23.018Z,26.47
2016-05-27T10:10:23.051Z,26.47
2016-05-27T10:11:22.710Z,26.58
2016-05-27T10:12:23.042Z,26.58
2016-05-27T10:13:22.888Z,26.56
2016-05-27T10:14:23.047Z,26.56
2016-05-27T10:15:22.909Z,26.68
2016-05-27T10:16:22.834Z,26.63
2016-05-27T10:17:23.102Z,26.73
2016-05-27T10:18:23.105Z,26.84
2016-05-27T10:19:23.107Z,26.81
2016-05-27T10:20:23.501Z,26.77
2016-05-27T10:21:23.159Z,26.65
2016-05-27T10:22:23.115Z,26.66
2016-05-27T10:23:22.993Z,26.66
2016-05-27T10:24:23.153Z,26.77
2016-05-27T10:25:23.170Z,26.8
2016-05-27T10:26:23.189Z,26.7
2016-05-27T10:27:23.161Z,26.53
2016-05-27T10:28:23.194Z,26.48
2016-05-27T10:29:23.181Z,26.34
2016-05-27T10:30:23.200Z,26.28
2016-05-27T10:31:23.233Z,26.15
2016-05-27T10:32:23.064Z,26.15
2016-05-27T10:33:23.223Z,25.99
2016-05-27T10:34:23.272Z,25.8
2016-05-27T10:35:22.994Z,25.69
2016-05-27T10:36:23.106Z,25.58
2016-05-27T10:37:23.108Z,25.48
2016-05-27T10:38:23.112Z,25.53
2016-05-27T10:39:23.271Z,25.53
2016-05-27T10:40:23.304Z,25.63
2016-05-27T10:41:23.199Z,25.65
2016-05-27T10:42:23.826Z,25.63
2016-05-27T10:43:23.313Z,25.72
2016-05-27T10:44:23.332Z,25.81
2016-05-27T10:45:23.318Z,25.91
2016-05-27T10:46:23.196Z,25.95
2016-05-27T10:47:24.885Z,26.18
2016-05-27T10:48:23.342Z,26.23
2016-05-27T10:49:24.297Z,26.26
2016-05-27T10:50:23.206Z,26.23
2016-05-27T10:51:23.397Z,26.26
2016-05-27T10:52:23.384Z,26.23
2016-05-27T10:53:23.230Z,26.36
2016-05-27T10:54:23.389Z,26.45
2016-05-27T10:55:23.236Z,26.41
2016-05-27T10:56:23.498Z,26.26
2016-05-27T10:57:23.480Z,26.19
2016-05-27T10:58:23.492Z,26.05
2016-05-27T10:59:24.567Z,26.15
2016-05-27T11:00:23.581Z,26.09
2016-05-27T11:01:23.593Z,26.13
2016-05-27T11:02:23.605Z,26.06
2016-05-27T11:03:23.632Z,26.19
2016-05-27T11:04:24.050Z,26.22
2016-05-27T11:05:23.516Z,26.21
2016-05-27T11:06:23.662Z,26.29
2016-05-27T11:07:23.778Z,26.19
2016-05-27T11:08:23.706Z,26.1
2016-05-27T11:09:23.712Z,26.07
2016-05-27T11:10:23.719Z,26.06
2016-05-27T11:11:23.768Z,25.93
2016-05-27T11:12:23.569Z,25.91
2016-05-27T11:13:23.807Z,25.84
2016-05-27T11:14:23.749Z,25.83
2016-05-27T11:15:25.191Z,25.9
2016-05-27T11:16:23.803Z,25.85
2016-05-27T11:17:23.775Z,25.73
2016-05-27T11:18:23.792Z,25.75
2016-05-27T11:19:23.921Z,25.78
2016-05-27T11:20:31.190Z,25.69
2016-05-27T11:21:23.802Z,25.68
2016-05-27T11:22:23.821Z,25.77
2016-05-27T11:23:23.840Z,25.93
2016-05-27T11:24:23.843Z,25.93
2016-05-27T11:25:28.206Z,26.03
2016-05-27T11:26:24.036Z,26.16
2016-05-27T11:27:23.977Z,26.18
2016-05-27T11:28:23.994Z,26.38
2016-05-27T11:29:24.044Z,26.55
2016-05-27T11:30:27.968Z,26.65
2016-05-27T11:31:23.987Z,26.68
2016-05-27T11:32:23.927Z,26.74
2016-05-27T11:33:23.976Z,26.83
2016-05-27T11:34:23.918Z,26.95
2016-05-27T11:35:24.763Z,26.95
2016-05-27T11:36:27.047Z,26.93
2016-05-27T11:37:24.129Z,27
2016-05-27T11:38:27.068Z,26.99
2016-05-27T11:39:24.040Z,27.07
2016-05-27T11:40:24.574Z,27.05
2016-05-27T11:41:24.045Z,27.05
2016-05-27T11:42:23.970Z,27.07
2016-05-27T11:43:23.988Z,27.25
2016-05-27T11:44:24.006Z,27.39
2016-05-27T11:45:25.556Z,27.49
2016-05-27T11:46:24.090Z,27.39
2016-05-27T11:47:24.030Z,27.36
2016-05-27T11:48:24.033Z,27.18
2016-05-27T11:49:24.786Z,27.08
2016-05-27T11:50:31.538Z,26.84
2016-05-27T11:51:24.104Z,26.68
2016-05-27T11:52:24.075Z,26.58
2016-05-27T11:53:24.077Z,26.51
2016-05-27T11:54:23.924Z,26.38
2016-05-27T11:55:26.755Z,26.44
2016-05-27T11:56:24.022Z,26.38
2016-05-27T11:57:24.119Z,26.37
2016-05-27T11:58:24.107Z,26.37
2016-05-27T11:59:24.124Z,26.38
2016-05-27T12:00:24.503Z,26.37
2016-05-27T12:01:24.177Z,26.33
2016-05-27T12:02:24.149Z,26.33
2016-05-27T12:03:24.151Z,26.25
2016-05-27T12:04:24.451Z,26.23
2016-05-27T12:05:26.047Z,26.19
2016-05-27T12:06:24.254Z,26.23
2016-05-27T12:07:24.193Z,26.19
2016-05-27T12:08:24.196Z,26.21
2016-05-27T12:09:24.214Z,26.05
2016-05-27T12:10:26.702Z,26.05
2016-05-27T12:11:24.251Z,26.05
2016-05-27T12:12:24.238Z,26.05
2016-05-27T12:13:24.256Z,26.07
2016-05-27T12:14:24.259Z,25.95
2016-05-27T12:15:28.043Z,25.84
2016-05-27T12:16:24.123Z,25.73
2016-05-27T12:17:24.267Z,25.65
2016-05-27T12:18:24.285Z,25.66
2016-05-27T12:19:24.148Z,25.65
2016-05-27T12:20:24.619Z,25.63
2016-05-27T12:21:24.183Z,25.66
2016-05-27T12:22:24.328Z,25.53
2016-05-27T12:23:24.002Z,25.48
2016-05-27T12:24:24.317Z,25.44
2016-05-27T12:25:24.367Z,25.29
2016-05-27T12:26:24.025Z,25.16
2016-05-27T12:27:24.356Z,25.13
2016-05-27T12:28:24.202Z,25.13
2016-05-27T12:29:24.377Z,25.1
2016-05-27T12:30:24.380Z,25.1
2016-05-27T12:31:24.460Z,24.89
2016-05-27T12:32:24.401Z,24.78
2016-05-27T12:33:24.388Z,24.55
2016-05-27T12:34:24.469Z,24.33
2016-05-27T12:35:24.410Z,24.3
2016-05-27T12:36:24.396Z,24.2
2016-05-27T12:37:24.415Z,24.14
2016-05-27T12:38:24.418Z,23.95
2016-05-27T12:39:24.435Z,23.92
2016-05-27T12:40:24.266Z,23.68
2016-05-27T12:41:24.441Z,23.66
2016-05-27T12:42:24.443Z,23.65
2016-05-27T12:43:27.306Z,23.5
2016-05-27T12:44:24.448Z,23.46
2016-05-27T12:45:24.451Z,23.36
2016-05-27T12:46:24.532Z,23.27
2016-05-27T12:47:24.473Z,23.2
2016-05-27T12:48:24.320Z,23.17
2016-05-27T12:49:24.869Z,23.1
2016-05-27T12:50:24.497Z,22.99
2016-05-27T12:51:24.562Z,22.91
2016-05-27T12:52:24.361Z,22.83
2016-05-27T12:53:24.505Z,22.84
2016-05-27T12:54:24.741Z,22.81
2016-05-27T12:55:24.510Z,22.76